Archer, Idaho
Current Conditions -  °F | °C
As of 9:53 AM on Wednesday 22 Oct 2014 (Local Time) from KRXE Reporting Station
Clear Clear  
Wind Chill: 40°   Ceiling: Unl
Heat Index: 40°   Visibility: 10mi
Dew Point: 32°   Wind: 3mph
Humidity: 73%   Direction: 170°S
Pressure: 30.21"   Gusts: NA
Location:  43.7568°N, 111.624°W
Report Text: KRXE 221553Z AUTO 17003KT 10SM CLR 04/00 A3021 RMK AO2 SLP231 T00440000
Loading
Personal Weather Stations






























Interactive Weather Map
Tropical Storm Tracking
New forecast layout! Learn more

10-Day Weather Forecast

Advertisements
Track Severe Weather on mobile